Time;durP1;ratioP1;P1;durP2;ratioP2;P2;SDS_P1;SDS_P2;PMS_P1;PMS_P2;Temp;Humidity;BMP_temperature;BMP_pressure;BME280_temperature;BME280_humidity;BME280_pressure;Samples;Min_cycle;Max_cycle;Signal;HPM_P1;HPM_P2
2024/04/20 00:00:12;;;;;;;5.13;1.58;;;7.40;94.30;;;;;;5369183;26;20019;-63
2024/04/20 00:02:38;;;;;;;2.22;1.27;;;7.40;94.30;;;;;;5357785;26;20094;-63
2024/04/20 00:05:04;;;;;;;6.85;1.55;;;7.40;94.30;;;;;;5362020;26;20005;-63
2024/04/20 00:07:30;;;;;;;2.60;1.60;;;7.40;94.40;;;;;;5358344;26;20008;-64
2024/04/20 00:09:58;;;;;;;2.45;1.40;;;7.40;94.40;;;;;;5350388;26;20063;-64
2024/04/20 00:12:24;;;;;;;2.47;1.60;;;7.40;94.50;;;;;;5357974;26;20847;-63
2024/04/20 00:14:53;;;;;;;2.83;1.80;;;7.40;94.50;;;;;;5364220;26;20028;-64
2024/04/20 00:17:18;;;;;;;3.95;1.30;;;7.40;94.50;;;;;;5361517;26;20000;-63
2024/04/20 00:19:44;;;;;;;3.22;1.50;;;7.40;94.50;;;;;;5360313;26;20011;-63
2024/04/20 00:22:11;;;;;;;4.95;1.50;;;7.40;94.50;;;;;;5363454;26;19996;-63
2024/04/20 00:24:37;;;;;;;3.28;1.42;;;7.40;94.60;;;;;;5365033;26;20328;-64
2024/04/20 00:27:03;;;;;;;4.40;1.67;;;7.40;94.50;;;;;;5367460;26;20011;-65
2024/04/20 00:29:29;;;;;;;2.90;1.50;;;7.40;94.60;;;;;;5358900;26;20007;-65
2024/04/20 00:31:54;;;;;;;3.65;1.80;;;7.40;94.60;;;;;;5354373;26;19996;-64
2024/04/20 00:34:20;;;;;;;3.28;1.55;;;7.40;94.60;;;;;;5355853;26;19996;-61
2024/04/20 00:36:49;;;;;;;3.55;1.70;;;7.30;94.70;;;;;;5365432;26;20047;-63
2024/04/20 00:39:14;;;;;;;2.88;1.70;;;7.40;94.70;;;;;;5370632;26;20065;-64
2024/04/20 00:41:40;;;;;;;2.97;1.80;;;7.30;94.70;;;;;;5364253;26;20012;-65
2024/04/20 00:44:05;;;;;;;3.92;1.80;;;7.30;94.80;;;;;;5366497;26;20108;-64
2024/04/20 00:46:31;;;;;;;2.67;1.60;;;7.30;94.80;;;;;;5366213;26;20013;-64
2024/04/20 00:48:57;;;;;;;3.38;1.60;;;7.30;94.90;;;;;;5368067;26;20012;-64
2024/04/20 00:51:23;;;;;;;2.92;1.50;;;7.30;94.80;;;;;;5365242;26;19996;-63
2024/04/20 00:53:52;;;;;;;3.40;1.40;;;7.30;94.80;;;;;;5368163;26;20000;-61
2024/04/20 00:56:20;;;;;;;1.98;1.33;;;7.20;94.80;;;;;;5350028;26;20018;-63
2024/04/20 00:58:46;;;;;;;4.40;1.70;;;7.20;94.70;;;;;;5360229;26;20011;-64
2024/04/20 01:01:12;;;;;;;2.65;1.40;;;7.20;94.70;;;;;;5371907;26;20004;-63
2024/04/20 01:03:37;;;;;;;2.75;1.50;;;7.20;94.70;;;;;;5365426;26;20041;-66
2024/04/20 01:06:03;;;;;;;3.97;1.40;;;7.20;94.60;;;;;;5367380;26;20008;-65
2024/04/20 01:08:30;;;;;;;2.58;1.30;;;7.20;94.60;;;;;;5361220;26;20444;-63
2024/04/20 01:10:56;;;;;;;3.03;1.50;;;7.20;94.60;;;;;;5368177;26;20008;-63
2024/04/20 01:13:26;;;;;;;2.15;1.20;;;7.20;94.60;;;;;;5362719;26;19997;-64
2024/04/20 01:15:52;;;;;;;3.53;1.58;;;7.20;94.60;;;;;;5367118;26;20004;-64
2024/04/20 01:18:18;;;;;;;3.78;1.42;;;7.20;94.60;;;;;;5367738;26;20010;-64
2024/04/20 01:20:43;;;;;;;3.58;1.60;;;7.20;94.60;;;;;;5363781;26;19996;-64
2024/04/20 01:23:09;;;;;;;2.45;1.42;;;7.10;94.60;;;;;;5368699;26;19996;-64
2024/04/20 01:25:41;;;;;;;3.55;1.40;;;7.10;94.50;;;;;;5366323;26;20000;-63
2024/04/20 01:28:06;;;;;;;;;;;7.10;94.60;;;;;;5359001;26;20054;-63
2024/04/20 01:30:32;;;;;;;2.95;1.60;;;7.20;94.60;;;;;;5367626;26;19932;-64
2024/04/20 01:32:57;;;;;;;2.00;1.20;;;7.20;94.50;;;;;;5366665;26;20019;-66
2024/04/20 01:35:23;;;;;;;2.70;1.40;;;7.10;94.50;;;;;;5356472;26;19997;-64
2024/04/20 01:37:48;;;;;;;3.92;1.77;;;7.20;94.50;;;;;;5355131;26;20039;-64
2024/04/20 01:40:14;;;;;;;4.55;1.42;;;7.20;94.50;;;;;;5354456;26;20000;-62
2024/04/20 01:42:39;;;;;;;2.20;1.33;;;7.20;94.40;;;;;;5355589;26;20047;-63
2024/04/20 01:45:05;;;;;;;2.22;1.40;;;7.20;94.40;;;;;;5354468;26;20499;-64
2024/04/20 01:47:31;;;;;;;3.30;1.60;;;7.20;94.40;;;;;;5358248;26;20012;-62
2024/04/20 01:49:57;;;;;;;3.15;1.40;;;7.10;94.40;;;;;;5367806;26;20338;-64
2024/04/20 01:52:23;;;;;;;3.20;1.52;;;7.10;94.40;;;;;;5355295;26;19996;-62
2024/04/20 01:54:48;;;;;;;2.92;1.60;;;7.10;94.40;;;;;;5367669;26;22012;-60
2024/04/20 01:57:14;;;;;;;1.90;1.40;;;7.10;94.40;;;;;;5358900;26;20013;-63
2024/04/20 01:59:40;;;;;;;3.25;1.40;;;7.10;94.50;;;;;;5364609;26;19997;-64
2024/04/20 02:02:05;;;;;;;4.30;1.48;;;7.20;94.40;;;;;;5350438;26;20436;-64
2024/04/20 02:04:31;;;;;;;3.92;1.42;;;7.10;94.40;;;;;;5351010;26;20482;-63
2024/04/20 02:06:56;;;;;;;2.58;1.45;;;7.10;94.50;;;;;;5359960;26;20324;-63
2024/04/20 02:09:22;;;;;;;2.35;1.20;;;7.10;94.50;;;;;;5367026;26;20008;-66
2024/04/20 02:11:47;;;;;;;3.38;1.30;;;7.10;94.60;;;;;;5352666;26;20008;-62
2024/04/20 02:14:13;;;;;;;2.85;1.20;;;7.10;94.60;;;;;;5357952;26;20123;-66
2024/04/20 02:16:40;;;;;;;2.70;1.23;;;7.10;94.60;;;;;;5359410;26;20073;-63
2024/04/20 02:19:06;;;;;;;3.10;1.42;;;7.10;94.70;;;;;;5359052;26;20000;-62
2024/04/20 02:21:31;;;;;;;3.55;1.33;;;7.10;94.70;;;;;;5359314;26;20095;-63
2024/04/20 02:23:57;;;;;;;3.53;1.58;;;7.10;94.80;;;;;;5364711;26;20011;-62
2024/04/20 02:26:22;;;;;;;4.13;1.30;;;7.10;94.80;;;;;;5364103;26;20016;-64
2024/04/20 02:28:48;;;;;;;3.92;1.40;;;7.10;94.80;;;;;;5362649;26;20017;-64
2024/04/20 02:31:13;;;;;;;2.28;1.27;;;7.00;94.90;;;;;;5352131;26;20005;-62
2024/04/20 02:33:42;;;;;;;3.20;1.35;;;7.00;95.00;;;;;;5357290;26;20037;-63
2024/04/20 02:36:07;;;;;;;6.53;1.58;;;7.00;94.90;;;;;;5366584;26;20048;-61
2024/04/20 02:38:33;;;;;;;4.40;1.17;;;7.00;95.00;;;;;;5358541;26;20009;-65
2024/04/20 02:40:59;;;;;;;3.42;1.30;;;7.00;95.00;;;;;;5357414;26;20074;-64
2024/04/20 02:43:25;;;;;;;3.35;1.50;;;6.90;95.10;;;;;;5356026;26;20081;-64
2024/04/20 02:45:51;;;;;;;2.65;1.38;;;7.00;95.10;;;;;;5359516;26;20422;-63
2024/04/20 02:48:16;;;;;;;2.75;1.58;;;7.00;95.10;;;;;;5364813;26;20012;-64
2024/04/20 02:50:42;;;;;;;2.88;1.48;;;7.00;95.10;;;;;;5354795;26;20007;-64
2024/04/20 02:53:07;;;;;;;2.45;1.45;;;7.10;95.00;;;;;;5364281;26;19996;-62
2024/04/20 02:55:33;;;;;;;4.35;1.67;;;7.00;95.00;;;;;;5350696;26;20008;-63
2024/04/20 02:57:59;;;;;;;6.13;1.50;;;7.10;95.00;;;;;;5362566;26;20470;-62
2024/04/20 03:00:25;;;;;;;5.57;1.70;;;7.00;94.90;;;;;;5352273;26;20015;-64
2024/04/20 03:02:51;;;;;;;4.47;1.50;;;7.00;94.90;;;;;;5357825;26;20081;-63
2024/04/20 03:05:17;;;;;;;3.88;1.33;;;7.00;95.00;;;;;;5358597;26;20316;-61
2024/04/20 03:07:42;;;;;;;4.00;1.40;;;7.00;95.00;;;;;;5356984;26;20055;-62
2024/04/20 03:10:08;;;;;;;6.85;1.45;;;7.10;95.00;;;;;;5353911;26;22300;-63
2024/04/20 03:12:33;;;;;;;3.35;1.38;;;7.10;95.00;;;;;;5363671;26;20459;-65
2024/04/20 03:14:59;;;;;;;4.32;1.80;;;7.10;94.90;;;;;;5372012;26;20019;-63
2024/04/20 03:17:24;;;;;;;4.93;1.48;;;7.00;94.90;;;;;;5367278;26;20041;-63
2024/04/20 03:19:50;;;;;;;4.68;1.65;;;7.00;95.00;;;;;;5370513;26;20011;-61
2024/04/20 03:22:16;;;;;;;5.13;1.48;;;7.00;95.10;;;;;;5367946;26;20003;-63
2024/04/20 03:24:42;;;;;;;4.22;1.40;;;7.00;95.00;;;;;;5366771;26;20467;-63
2024/04/20 03:27:07;;;;;;;5.57;1.40;;;7.00;95.10;;;;;;5363291;26;19995;-63
2024/04/20 03:29:33;;;;;;;4.18;1.30;;;7.10;95.10;;;;;;5362678;26;20098;-63
2024/04/20 03:31:58;;;;;;;3.85;1.30;;;7.10;95.00;;;;;;5349331;26;19997;-62
2024/04/20 03:34:24;;;;;;;3.40;1.30;;;7.10;94.90;;;;;;5347873;26;19997;-62
2024/04/20 03:36:49;;;;;;;5.38;1.40;;;7.10;94.90;;;;;;5360847;26;20440;-62
2024/04/20 03:39:16;;;;;;;3.58;1.10;;;7.10;94.80;;;;;;5353300;26;20013;-62
2024/04/20 03:41:45;;;;;;;4.30;1.40;;;7.10;94.80;;;;;;5358322;26;20008;-64
2024/04/20 03:44:13;;;;;;;4.35;1.23;;;7.00;94.90;;;;;;5360781;26;20005;-61
2024/04/20 03:46:39;;;;;;;5.50;1.55;;;7.00;94.80;;;;;;5352271;26;20069;-66
2024/04/20 03:49:05;;;;;;;5.28;1.40;;;7.00;94.80;;;;;;5363562;26;20004;-63
2024/04/20 03:51:31;;;;;;;3.13;1.27;;;7.00;94.90;;;;;;5350534;26;20017;-64
2024/04/20 03:53:59;;;;;;;3.17;1.20;;;7.00;94.90;;;;;;5364018;26;20016;-62
2024/04/20 03:56:25;;;;;;;3.75;1.33;;;6.90;94.90;;;;;;5368582;26;20015;-63
2024/04/20 03:58:51;;;;;;;4.72;1.10;;;6.90;94.90;;;;;;5351067;26;19992;-62
2024/04/20 04:01:17;;;;;;;3.75;1.20;;;6.90;95.00;;;;;;5356870;26;20007;-63
2024/04/20 04:03:42;;;;;;;5.03;1.13;;;6.90;94.90;;;;;;5354245;26;20036;-63
2024/04/20 04:06:08;;;;;;;4.90;1.30;;;6.90;95.00;;;;;;5356663;26;20080;-64
2024/04/20 04:08:33;;;;;;;4.85;1.40;;;6.90;94.90;;;;;;5358704;26;20008;-63
2024/04/20 04:11:00;;;;;;;3.70;1.25;;;6.90;94.90;;;;;;5367348;26;20040;-60
2024/04/20 04:13:26;;;;;;;4.82;1.50;;;6.90;94.90;;;;;;5360052;26;20011;-63
2024/04/20 04:15:51;;;;;;;4.43;1.42;;;6.90;94.80;;;;;;5357650;26;20416;-62
2024/04/20 04:18:17;;;;;;;6.38;1.48;;;6.80;94.80;;;;;;5350940;26;20009;-62
2024/04/20 04:20:42;;;;;;;7.03;1.58;;;6.80;94.90;;;;;;5360556;26;20081;-60
2024/04/20 04:23:08;;;;;;;6.60;1.77;;;6.80;94.90;;;;;;5358376;26;20571;-66
2024/04/20 04:25:37;;;;;;;6.70;1.40;;;6.80;95.00;;;;;;5356965;26;20001;-62
2024/04/20 04:28:02;;;;;;;6.88;1.77;;;6.80;95.00;;;;;;5354121;26;20021;-65
2024/04/20 04:30:28;;;;;;;7.80;1.83;;;6.90;95.10;;;;;;5366691;26;20015;-62
2024/04/20 04:32:54;;;;;;;6.82;2.08;;;6.90;95.10;;;;;;5362441;26;20036;-63
2024/04/20 04:35:19;;;;;;;5.25;1.73;;;6.90;95.00;;;;;;5371591;26;20024;-62
2024/04/20 04:37:45;;;;;;;6.40;1.80;;;6.90;95.00;;;;;;5358099;26;20079;-64
2024/04/20 04:40:11;;;;;;;10.35;2.53;;;6.90;95.10;;;;;;5364060;26;20008;-62
2024/04/20 04:42:36;;;;;;;8.68;1.80;;;6.90;95.10;;;;;;5362441;26;20024;-62
2024/04/20 04:45:03;;;;;;;6.75;2.00;;;6.90;95.20;;;;;;5376288;26;20081;-63
2024/04/20 04:47:29;;;;;;;8.98;1.92;;;6.80;95.10;;;;;;5353316;26;20672;-62
2024/04/20 04:49:54;;;;;;;5.97;1.80;;;6.80;95.20;;;;;;5362254;26;20015;-64
2024/04/20 04:52:20;;;;;;;8.40;1.90;;;6.80;95.20;;;;;;5356195;26;20079;-64
2024/04/20 04:54:45;;;;;;;5.00;1.80;;;6.80;95.20;;;;;;5357417;26;20008;-63
2024/04/20 04:57:11;;;;;;;5.82;1.88;;;6.80;95.20;;;;;;5352321;26;20001;-64
2024/04/20 04:59:36;;;;;;;5.35;1.67;;;6.80;95.20;;;;;;5361628;26;20033;-64
2024/04/20 05:02:02;;;;;;;4.95;1.70;;;6.80;95.20;;;;;;5366726;26;20008;-63
2024/04/20 05:04:29;;;;;;;5.30;1.75;;;6.70;95.10;;;;;;5359075;26;20025;-62
2024/04/20 05:06:54;;;;;;;5.40;1.52;;;6.70;95.10;;;;;;5362580;26;20004;-64
2024/04/20 05:09:20;;;;;;;4.80;1.25;;;6.70;95.10;;;;;;5357260;26;20008;-63
2024/04/20 05:11:46;;;;;;;4.93;1.50;;;6.80;95.10;;;;;;5354066;26;20004;-64
2024/04/20 05:14:12;;;;;;;3.63;1.55;;;6.70;95.10;;;;;;5368802;26;20439;-62
2024/04/20 05:16:37;;;;;;;5.03;1.70;;;6.70;95.10;;;;;;5361407;26;20130;-63
2024/04/20 05:19:05;;;;;;;5.45;1.42;;;6.70;95.10;;;;;;5357846;26;20097;-63
2024/04/20 05:21:30;;;;;;;5.07;1.50;;;6.70;95.10;;;;;;5346195;26;20324;-64
2024/04/20 05:23:56;;;;;;;4.53;1.45;;;6.70;95.10;;;;;;5358734;26;19997;-62
2024/04/20 05:26:25;;;;;;;6.00;1.70;;;6.70;95.20;;;;;;5347956;26;20001;-63
2024/04/20 05:28:51;;;;;;;5.35;1.67;;;6.70;95.20;;;;;;5358625;26;19999;-62
2024/04/20 05:31:16;;;;;;;4.85;1.30;;;6.80;95.20;;;;;;5364879;26;20033;-62
2024/04/20 05:33:43;;;;;;;6.47;1.60;;;6.80;95.20;;;;;;5365527;26;20001;-63
2024/04/20 05:36:08;;;;;;;4.88;1.50;;;6.90;95.10;;;;;;5344771;26;20036;-64
2024/04/20 05:38:34;;;;;;;4.85;1.20;;;6.90;95.00;;;;;;5356226;26;20043;-64
2024/04/20 05:41:03;;;;;;;3.03;1.13;;;6.90;95.00;;;;;;5365686;26;20004;-63
2024/04/20 05:43:29;;;;;;;3.80;1.20;;;6.90;95.00;;;;;;5349375;26;20009;-63
2024/04/20 05:45:55;;;;;;;7.85;1.60;;;6.90;94.90;;;;;;5364894;26;21573;-63
2024/04/20 05:48:20;;;;;;;5.40;1.52;;;6.90;94.80;;;;;;5360560;26;20073;-63
2024/04/20 05:50:46;;;;;;;4.53;1.25;;;6.90;94.90;;;;;;5351851;26;20589;-62
2024/04/20 05:53:12;;;;;;;4.53;1.20;;;6.90;94.80;;;;;;5356662;26;20642;-62
2024/04/20 05:55:37;;;;;;;3.85;1.35;;;6.90;94.80;;;;;;5354363;26;20015;-63
2024/04/20 05:58:04;;;;;;;4.88;1.35;;;6.80;94.80;;;;;;5352150;26;20032;-63
2024/04/20 06:00:29;;;;;;;6.75;1.65;;;6.90;94.90;;;;;;5350858;26;20009;-64
2024/04/20 06:02:55;;;;;;;4.93;1.30;;;6.90;94.80;;;;;;5355589;26;20008;-63
2024/04/20 06:05:20;;;;;;;3.33;1.25;;;6.90;94.80;;;;;;5369398;26;20031;-65
2024/04/20 06:07:46;;;;;;;4.63;1.30;;;7.00;94.90;;;;;;5361333;26;20001;-63
2024/04/20 06:10:11;;;;;;;5.20;1.10;;;7.10;94.90;;;;;;5356566;26;20000;-64
2024/04/20 06:12:37;;;;;;;4.22;1.20;;;7.10;94.80;;;;;;5365679;26;20010;-63
2024/04/20 06:15:03;;;;;;;5.50;1.67;;;7.20;94.70;;;;;;5371292;26;20079;-64
2024/04/20 06:17:29;;;;;;;4.00;1.40;;;7.30;94.60;;;;;;5354762;26;20023;-63
2024/04/20 06:19:55;;;;;;;4.22;1.60;;;7.30;94.60;;;;;;5363081;26;20017;-63
2024/04/20 06:22:21;;;;;;;4.70;1.55;;;7.80;94.70;;;;;;5369626;26;20012;-63
2024/04/20 06:24:52;;;;;;;3.50;1.27;;;8.10;93.80;;;;;;5365822;26;20000;-63
2024/04/20 06:27:18;;;;;;;5.07;1.40;;;8.30;93.40;;;;;;5372681;26;20016;-64
2024/04/20 06:29:43;;;;;;;5.25;1.80;;;8.50;93.20;;;;;;5365179;26;20000;-62
2024/04/20 06:32:09;;;;;;;5.20;1.70;;;9.40;92.50;;;;;;5357521;26;20004;-63
2024/04/20 06:34:34;;;;;;;4.53;1.70;;;9.50;91.40;;;;;;5363428;26;20028;-63
2024/04/20 06:37:00;;;;;;;4.90;2.08;;;9.40;91.10;;;;;;5363432;26;20004;-63
2024/04/20 06:39:27;;;;;;;4.00;1.60;;;9.30;91.10;;;;;;5346809;26;20316;-64
2024/04/20 06:41:54;;;;;;;5.90;1.50;;;9.30;91.00;;;;;;5356676;26;20078;-66
2024/04/20 06:44:20;;;;;;;5.38;1.55;;;9.30;91.10;;;;;;5357015;26;20000;-65
2024/04/20 06:46:45;;;;;;;7.05;1.50;;;9.50;91.10;;;;;;5352202;26;20044;-65
2024/04/20 06:49:12;;;;;;;5.32;1.63;;;10.10;91.00;;;;;;5365906;26;20015;-65
2024/04/20 06:51:38;;;;;;;7.03;1.80;;;11.50;88.80;;;;;;5360673;26;20358;-65
2024/04/20 06:54:03;;;;;;;6.03;1.40;;;12.00;85.00;;;;;;5359404;26;20078;-66
2024/04/20 06:56:29;;;;;;;6.07;1.63;;;11.60;83.80;;;;;;5367768;26;20019;-65
2024/04/20 06:58:54;;;;;;;6.57;1.70;;;10.80;84.40;;;;;;5360381;26;20004;-63
2024/04/20 07:01:20;;;;;;;9.18;1.80;;;10.30;86.20;;;;;;5358404;26;20335;-66
2024/04/20 07:03:45;;;;;;;6.97;1.40;;;10.00;87.30;;;;;;5351614;26;20013;-64
2024/04/20 07:06:11;;;;;;;7.05;1.50;;;9.70;88.30;;;;;;5369088;26;20384;-63
2024/04/20 07:08:36;;;;;;;6.25;1.50;;;9.40;89.20;;;;;;5367037;26;20018;-64
2024/04/20 07:11:04;;;;;;;3.33;1.08;;;9.30;90.10;;;;;;5360488;26;19996;-64
2024/04/20 07:13:31;;;;;;;2.50;1.10;;;9.10;90.00;;;;;;5365149;26;20024;-65
2024/04/20 07:15:56;;;;;;;3.28;1.10;;;8.80;90.00;;;;;;5354297;26;20018;-64
2024/04/20 07:18:22;;;;;;;4.68;1.20;;;8.50;90.40;;;;;;5357005;26;20009;-65
2024/04/20 07:20:47;;;;;;;2.63;1.20;;;8.40;90.70;;;;;;5358749;26;20001;-66
2024/04/20 07:23:13;;;;;;;4.60;1.42;;;8.40;91.00;;;;;;5354323;26;20099;-65
2024/04/20 07:25:38;;;;;;;3.38;1.02;;;8.60;91.30;;;;;;5372768;26;20008;-67
2024/04/20 07:28:04;;;;;;;4.32;1.33;;;9.00;90.90;;;;;;5358846;26;20064;-64
2024/04/20 07:30:30;;;;;;;3.20;1.17;;;9.00;90.40;;;;;;5351800;26;20025;-65
2024/04/20 07:32:56;;;;;;;3.20;1.20;;;8.90;90.50;;;;;;5365549;26;20000;-65
2024/04/20 07:35:21;;;;;;;6.32;1.52;;;8.80;90.70;;;;;;5355263;26;20000;-64
2024/04/20 07:37:47;;;;;;;4.88;1.45;;;8.80;90.90;;;;;;5353160;26;20001;-62
2024/04/20 07:40:12;;;;;;;5.10;1.38;;;8.90;90.90;;;;;;5366330;26;20019;-65
2024/04/20 07:42:38;;;;;;;5.22;1.38;;;9.00;90.90;;;;;;5356141;26;20080;-66
2024/04/20 07:45:04;;;;;;;5.00;1.50;;;9.10;90.90;;;;;;5372076;26;20447;-66
2024/04/20 07:47:29;;;;;;;6.95;1.45;;;9.10;90.80;;;;;;5357820;26;20459;-66
2024/04/20 07:49:55;;;;;;;6.28;1.50;;;9.40;90.70;;;;;;5351432;26;20001;-66
2024/04/20 07:52:20;;;;;;;6.20;1.80;;;10.70;88.70;;;;;;5363809;26;20001;-67
2024/04/20 07:54:46;;;;;;;4.45;1.63;;;12.10;84.80;;;;;;5363210;26;20014;-67
2024/04/20 07:57:12;;;;;;;5.88;1.80;;;13.60;79.30;;;;;;5356279;26;19997;-66
2024/04/20 07:59:39;;;;;;;6.25;1.90;;;14.60;75.70;;;;;;5369567;26;20009;-66
2024/04/20 08:02:06;;;;;;;7.63;1.98;;;15.10;72.60;;;;;;5370307;26;20013;-67
2024/04/20 08:04:31;;;;;;;8.07;2.38;;;15.40;70.60;;;;;;5362456;26;19997;-65
2024/04/20 08:06:57;;;;;;;4.78;1.60;;;15.80;69.90;;;;;;5369604;26;20465;-65
2024/04/20 08:09:23;;;;;;;6.03;1.65;;;15.30;69.80;;;;;;5367807;26;20023;-67
2024/04/20 08:11:48;;;;;;;7.15;1.85;;;14.20;71.60;;;;;;5362212;26;20019;-66
2024/04/20 08:14:14;;;;;;;7.05;1.70;;;13.40;73.60;;;;;;5369723;26;20004;-66
2024/04/20 08:16:39;;;;;;;4.80;1.73;;;12.30;75.50;;;;;;5380334;26;19993;-66
2024/04/20 08:19:05;;;;;;;4.97;1.50;;;11.60;78.10;;;;;;5357081;26;20000;-66
2024/04/20 08:21:31;;;;;;;6.13;1.80;;;11.10;79.70;;;;;;5358970;26;19996;-66
2024/04/20 08:23:56;;;;;;;6.65;1.63;;;10.70;81.00;;;;;;5362316;26;20015;-67
2024/04/20 08:26:22;;;;;;;5.30;1.60;;;10.30;82.30;;;;;;5373449;26;20015;-66
2024/04/20 08:28:47;;;;;;;7.80;1.90;;;9.90;83.30;;;;;;5384518;26;20004;-66
2024/04/20 08:31:13;;;;;;;6.93;1.95;;;9.60;84.40;;;;;;5368549;26;20014;-66
2024/04/20 08:33:38;;;;;;;7.18;1.75;;;9.50;85.40;;;;;;5371437;26;20015;-65
2024/04/20 08:36:04;;;;;;;7.93;1.98;;;9.40;86.20;;;;;;5361167;26;19996;-65
2024/04/20 08:38:30;;;;;;;7.30;1.75;;;9.30;86.50;;;;;;5366756;26;20015;-65
2024/04/20 08:41:03;;;;;;;8.48;1.65;;;9.20;87.20;;;;;;5357872;26;20343;-65
2024/04/20 08:43:30;;;;;;;5.00;1.40;;;9.20;87.60;;;;;;5365115;26;20012;-66
2024/04/20 08:45:57;;;;;;;5.55;1.50;;;9.20;87.80;;;;;;5359270;26;20447;-66
2024/04/20 08:48:25;;;;;;;5.93;1.55;;;9.20;88.10;;;;;;5363644;26;20012;-66
2024/04/20 08:50:53;;;;;;;6.10;1.77;;;9.40;88.70;;;;;;5359651;26;20001;-66
2024/04/20 08:53:18;;;;;;;6.47;1.50;;;9.60;88.70;;;;;;5366447;26;20082;-66
2024/04/20 08:55:47;;;;;;;7.70;2.08;;;9.80;88.50;;;;;;5355696;26;20419;-67
2024/04/20 08:58:14;;;;;;;6.93;1.77;;;10.00;88.20;;;;;;5358137;26;20321;-67
2024/04/20 09:00:42;;;;;;;4.75;1.42;;;10.10;87.80;;;;;;5363811;26;20000;-66
2024/04/20 09:03:08;;;;;;;5.47;1.67;;;10.10;87.60;;;;;;5369762;26;20008;-66
2024/04/20 09:05:34;;;;;;;4.90;2.00;;;10.10;87.00;;;;;;5359721;26;20000;-67
2024/04/20 09:08:00;;;;;;;4.00;1.40;;;10.00;86.00;;;;;;5366006;26;20401;-66
2024/04/20 09:10:26;;;;;;;3.30;0.93;;;9.90;85.70;;;;;;5369987;26;20076;-66
2024/04/20 09:12:52;;;;;;;5.70;1.55;;;9.80;85.70;;;;;;5365746;26;20405;-66
2024/04/20 09:15:20;;;;;;;3.58;1.10;;;9.70;85.70;;;;;;5360991;26;20000;-66
2024/04/20 09:17:46;;;;;;;4.50;1.27;;;9.70;85.90;;;;;;5354895;26;19993;-66
2024/04/20 09:20:12;;;;;;;4.72;1.20;;;9.80;86.20;;;;;;5368741;26;20000;-66
2024/04/20 09:22:38;;;;;;;3.80;1.20;;;9.90;86.10;;;;;;5367337;26;20027;-65
2024/04/20 09:25:05;;;;;;;6.80;1.42;;;9.90;85.60;;;;;;5353259;26;20534;-66
2024/04/20 09:27:31;;;;;;;4.25;1.33;;;10.00;85.60;;;;;;5365362;26;20475;-67
2024/04/20 09:30:03;;;;;;;7.53;1.60;;;10.30;85.50;;;;;;5356198;26;20008;-67
2024/04/20 09:32:30;;;;;;;8.13;1.67;;;10.30;85.00;;;;;;5360883;26;20106;-67
2024/04/20 09:34:56;;;;;;;5.93;1.48;;;10.20;84.20;;;;;;5359797;26;20004;-67
2024/04/20 09:37:22;;;;;;;6.53;1.70;;;10.00;84.30;;;;;;5359630;26;20696;-67
2024/04/20 09:39:47;;;;;;;5.03;1.40;;;9.80;85.10;;;;;;5360609;26;20089;-66
2024/04/20 09:42:16;;;;;;;3.35;1.30;;;9.60;84.90;;;;;;5354275;26;20011;-67
2024/04/20 09:44:43;;;;;;;4.82;1.48;;;9.60;85.50;;;;;;5355552;26;20019;-66
2024/04/20 09:47:11;;;;;;;5.20;1.40;;;9.70;85.90;;;;;;5362201;26;20001;-67
2024/04/20 09:49:40;;;;;;;6.05;1.60;;;9.70;85.80;;;;;;5370097;26;20004;-66
2024/04/20 09:52:15;;;;;;;6.32;1.40;;;9.70;86.00;;;;;;5358560;26;20011;-66
2024/04/20 09:55:04;;;;;;;6.03;1.42;;;9.70;85.90;;;;;;5361776;26;20001;-66
2024/04/20 09:57:32;;;;;;;6.00;1.65;;;9.80;85.60;;;;;;5359577;26;20073;-66
2024/04/20 09:59:59;;;;;;;5.40;1.67;;;9.90;85.60;;;;;;5367027;26;20052;-66
2024/04/20 10:02:26;;;;;;;7.25;1.80;;;9.90;85.20;;;;;;5352336;26;20001;-66
2024/04/20 10:04:58;;;;;;;5.20;1.40;;;10.00;85.50;;;;;;5367584;26;20000;-66
2024/04/20 10:07:34;;;;;;;6.82;2.05;;;10.10;85.50;;;;;;5360190;26;20000;-65
2024/04/20 10:10:04;;;;;;;9.68;2.35;;;10.20;85.30;;;;;;5371043;26;20026;-67
2024/04/20 10:12:30;;;;;;;7.53;1.77;;;10.40;85.30;;;;;;5363707;26;20455;-67
2024/04/20 10:14:57;;;;;;;7.25;1.73;;;10.40;85.10;;;;;;5372214;26;19999;-67
2024/04/20 10:17:25;;;;;;;6.47;1.50;;;10.50;85.00;;;;;;5363560;26;20426;-67
2024/04/20 10:19:52;;;;;;;5.30;1.30;;;10.80;84.90;;;;;;5360693;26;20000;-66
2024/04/20 10:22:21;;;;;;;3.97;1.40;;;11.00;83.70;;;;;;5373049;26;20018;-68
2024/04/20 10:24:54;;;;;;;5.88;1.77;;;11.00;81.90;;;;;;5358107;26;20004;-66
2024/04/20 10:27:27;;;;;;;7.07;1.50;;;11.00;81.50;;;;;;5363179;26;20011;-67
2024/04/20 10:30:21;;;;;;;5.07;1.70;;;10.80;80.60;;;;;;5367946;26;20085;-67
2024/04/20 10:32:50;;;;;;;5.65;1.65;;;10.60;81.00;;;;;;5357259;26;20015;-66
2024/04/20 10:35:20;;;;;;;5.85;1.63;;;10.50;81.40;;;;;;5364442;26;20796;-66
2024/04/20 10:38:01;;;;;;;5.05;1.52;;;10.50;81.30;;;;;;5356226;26;20092;-67
2024/04/20 10:40:31;;;;;;;4.68;1.40;;;10.60;81.00;;;;;;5361694;26;19993;-67
2024/04/20 10:43:18;;;;;;;6.28;1.90;;;10.70;81.10;;;;;;5369455;26;20103;-67
2024/04/20 10:45:44;;;;;;;7.07;1.63;;;10.90;80.80;;;;;;5360557;26;20008;-67
2024/04/20 10:48:13;;;;;;;7.10;1.92;;;11.00;80.70;;;;;;5362490;26;20011;-66
2024/04/20 10:50:43;;;;;;;8.40;1.80;;;11.20;80.50;;;;;;5360538;26;20082;-65
2024/04/20 10:53:10;;;;;;;5.00;1.48;;;11.30;79.80;;;;;;5362618;26;20069;-65
2024/04/20 10:55:36;;;;;;;6.75;1.70;;;11.40;78.90;;;;;;5363742;26;20004;-66
2024/04/20 10:58:02;;;;;;;7.97;2.20;;;11.40;78.40;;;;;;5360684;26;20040;-66
2024/04/20 11:00:29;;;;;;;6.13;1.52;;;11.50;78.50;;;;;;5374789;26;20000;-67
2024/04/20 11:02:55;;;;;;;8.32;2.00;;;11.60;78.10;;;;;;5363472;26;19997;-67
2024/04/20 11:05:21;;;;;;;6.00;1.90;;;11.80;77.70;;;;;;5367947;26;20027;-67
2024/04/20 11:08:04;;;;;;;4.90;1.50;;;12.00;77.00;;;;;;5360755;26;20008;-67
2024/04/20 11:10:30;;;;;;;6.32;1.20;;;11.80;76.90;;;;;;5370428;26;20004;-65
2024/04/20 11:13:03;;;;;;;2.05;0.90;;;11.30;77.20;;;;;;5366674;26;20456;-66
2024/04/20 11:15:31;;;;;;;3.55;1.00;;;10.80;79.20;;;;;;5367051;26;19997;-66
2024/04/20 11:17:56;;;;;;;2.53;1.05;;;10.40;79.90;;;;;;5360119;26;20521;-66
2024/04/20 11:20:22;;;;;;;4.97;1.58;;;10.20;81.00;;;;;;5364810;26;20043;-66
2024/04/20 11:22:50;;;;;;;6.57;1.52;;;10.10;82.20;;;;;;5368316;26;20055;-66
2024/04/20 11:25:15;;;;;;;4.65;1.15;;;10.00;83.00;;;;;;5365448;26;20001;-67
2024/04/20 11:27:45;;;;;;;9.43;1.98;;;10.10;83.80;;;;;;5369807;26;20012;-65
2024/04/20 11:30:12;;;;;;;5.65;1.63;;;10.20;84.60;;;;;;5362141;26;20096;-66
2024/04/20 11:32:37;;;;;;;4.90;1.10;;;10.20;85.10;;;;;;5365133;26;20032;-65
2024/04/20 11:35:14;;;;;;;3.90;1.20;;;10.20;85.10;;;;;;5376619;26;20024;-65
2024/04/20 11:37:39;;;;;;;2.67;0.90;;;10.20;85.30;;;;;;5371762;26;20015;-65
2024/04/20 11:40:06;;;;;;;3.53;1.00;;;10.30;85.50;;;;;;5367582;26;20369;-65
2024/04/20 11:42:32;;;;;;;3.17;0.88;;;10.50;85.60;;;;;;5365941;26;20375;-65
2024/04/20 11:45:03;;;;;;;3.22;1.10;;;10.60;85.50;;;;;;5369861;26;20008;-65
2024/04/20 11:47:28;;;;;;;4.88;1.23;;;10.80;85.10;;;;;;5369686;26;20013;-66
2024/04/20 11:49:54;;;;;;;4.90;1.48;;;10.90;84.70;;;;;;5371158;26;20078;-65
2024/04/20 11:55:12;;;;;;;4.40;1.48;;;10.90;84.10;;;;;;5371394;26;20096;-66
2024/04/20 11:57:39;;;;;;;5.00;1.50;;;10.70;84.00;;;;;;5368182;26;20005;-65
2024/04/20 12:00:05;;;;;;;5.13;1.80;;;10.50;84.40;;;;;;5368228;26;20045;-65
2024/04/20 12:02:34;;;;;;;6.97;1.75;;;10.40;84.80;;;;;;5370977;26;20005;-65
2024/04/20 12:05:00;;;;;;;4.20;1.50;;;10.50;85.10;;;;;;5368999;26;20015;-65
2024/04/20 12:07:28;;;;;;;4.82;1.40;;;10.70;85.40;;;;;;5366094;26;20000;-65
2024/04/20 12:09:54;;;;;;;5.80;1.90;;;10.80;85.40;;;;;;5367567;26;19999;-65
2024/04/20 12:12:20;;;;;;;4.97;1.65;;;11.00;85.50;;;;;;5369270;26;20001;-64
2024/04/20 12:14:47;;;;;;;11.23;1.65;;;11.00;85.00;;;;;;5368975;26;20451;-65
2024/04/20 12:17:12;;;;;;;7.95;1.92;;;11.00;85.00;;;;;;5366221;26;19997;-66
2024/04/20 12:19:38;;;;;;;8.20;1.63;;;11.00;85.30;;;;;;5362426;26;20499;-65
2024/04/20 12:22:03;;;;;;;7.88;1.85;;;11.10;85.50;;;;;;5366324;26;20652;-65
2024/04/20 12:24:30;;;;;;;6.75;1.70;;;11.10;85.30;;;;;;5368700;26;20011;-65
2024/04/20 12:26:56;;;;;;;5.70;1.50;;;11.20;85.40;;;;;;5366976;26;20065;-65
2024/04/20 12:29:22;;;;;;;6.97;1.60;;;11.30;85.20;;;;;;5370227;26;20012;-65
2024/04/20 12:31:48;;;;;;;5.43;1.58;;;11.20;84.90;;;;;;5368474;26;20000;-65
2024/04/20 12:34:13;;;;;;;7.82;1.90;;;11.10;84.90;;;;;;5366109;26;20000;-65
2024/04/20 12:36:39;;;;;;;6.97;1.60;;;11.00;84.90;;;;;;5362779;26;20032;-65
2024/04/20 12:39:06;;;;;;;6.30;1.88;;;11.00;85.20;;;;;;5369895;26;20767;-65
2024/04/20 12:41:32;;;;;;;9.30;2.17;;;11.00;85.30;;;;;;5367196;26;20049;-65
2024/04/20 12:43:58;;;;;;;5.15;1.60;;;11.10;85.30;;;;;;5360942;26;20023;-66
2024/04/20 12:46:24;;;;;;;6.57;1.40;;;11.30;85.50;;;;;;5350893;26;20012;-65
2024/04/20 12:48:50;;;;;;;5.30;1.77;;;11.60;85.70;;;;;;5361295;26;20775;-65
2024/04/20 12:51:17;;;;;;;7.07;1.63;;;11.80;85.40;;;;;;5365784;26;20044;-66